createdAt,value
2023-02-11T00:00:26.580Z,3.09
2023-02-11T00:01:26.565Z,3.06
2023-02-11T00:02:26.543Z,3.07
2023-02-11T00:03:26.626Z,3.07
2023-02-11T00:04:26.505Z,3.06
2023-02-11T00:05:26.529Z,3.06
2023-02-11T00:06:26.480Z,3.09
2023-02-11T00:07:26.466Z,3.06
2023-02-11T00:08:26.456Z,3.05
2023-02-11T00:09:26.453Z,3.06
2023-02-11T00:10:26.450Z,3.05
2023-02-11T00:11:26.440Z,3.03
2023-02-11T00:12:26.442Z,3.05
2023-02-11T00:13:26.397Z,3.06
2023-02-11T00:14:26.395Z,3.06
2023-02-11T00:15:26.415Z,3.03
2023-02-11T00:16:26.394Z,3.06
2023-02-11T00:17:26.360Z,3.03
2023-02-11T00:18:26.351Z,3.02
2023-02-11T00:19:26.329Z,3.06
2023-02-11T00:20:26.280Z,3.06
2023-02-11T00:21:26.295Z,3.06
2023-02-11T00:22:26.273Z,3.06
2023-02-11T00:23:26.312Z,3.09
2023-02-11T00:24:26.241Z,3.10
2023-02-11T00:25:26.262Z,3.15
2023-02-11T00:26:26.233Z,3.20
2023-02-11T00:27:26.239Z,3.24
2023-02-11T00:28:26.203Z,3.30
2023-02-11T00:29:26.224Z,3.30
2023-02-11T00:30:26.221Z,3.31
2023-02-11T00:31:26.368Z,3.33
2023-02-11T00:32:26.145Z,3.34
2023-02-11T00:33:26.140Z,3.36
2023-02-11T00:34:26.139Z,3.36
2023-02-11T00:35:26.129Z,3.40
2023-02-11T00:36:26.129Z,3.36
2023-02-11T00:37:26.107Z,3.34
2023-02-11T00:38:26.065Z,3.33
2023-02-11T00:39:26.087Z,3.34
2023-02-11T00:40:26.087Z,3.33
2023-02-11T00:41:26.054Z,3.31
2023-02-11T00:42:26.052Z,3.31
2023-02-11T00:43:26.016Z,3.30
2023-02-11T00:44:26.018Z,3.30
2023-02-11T00:45:25.994Z,3.28
2023-02-11T00:46:26.034Z,3.28
2023-02-11T00:47:26.018Z,3.30
2023-02-11T00:48:25.949Z,3.30
2023-02-11T00:49:26.009Z,3.30
2023-02-11T00:50:25.937Z,3.31
2023-02-11T00:51:25.927Z,3.33
2023-02-11T00:52:32.939Z,3.31
2023-02-11T00:53:25.889Z,3.33
2023-02-11T00:54:27.365Z,3.33
2023-02-11T00:55:25.858Z,3.33
2023-02-11T00:56:25.848Z,3.34
2023-02-11T00:57:25.817Z,3.34
2023-02-11T00:58:25.830Z,3.34
2023-02-11T00:59:25.797Z,3.34
2023-02-11T01:00:25.789Z,3.33
2023-02-11T01:01:25.822Z,3.34
2023-02-11T01:02:25.776Z,3.36
2023-02-11T01:03:25.749Z,3.39
2023-02-11T01:04:25.748Z,3.40
2023-02-11T01:05:25.812Z,3.40
2023-02-11T01:06:25.708Z,3.42
2023-02-11T01:07:25.701Z,3.43
2023-02-11T01:08:25.696Z,3.44
2023-02-11T01:09:25.681Z,3.44
2023-02-11T01:10:25.664Z,3.44
2023-02-11T01:11:25.665Z,3.40
2023-02-11T01:12:25.656Z,3.42
2023-02-11T01:13:25.644Z,3.40
2023-02-11T01:14:25.635Z,3.42
2023-02-11T01:15:25.611Z,3.43
2023-02-11T01:16:28.302Z,3.43
2023-02-11T01:17:25.595Z,3.43
2023-02-11T01:18:25.576Z,3.46
2023-02-11T01:19:25.589Z,3.46
2023-02-11T01:20:25.557Z,3.43
2023-02-11T01:21:25.532Z,3.44
2023-02-11T01:22:25.530Z,3.44
2023-02-11T01:23:25.517Z,3.43
2023-02-11T01:24:25.513Z,3.46
2023-02-11T01:25:25.483Z,3.46
2023-02-11T01:26:25.478Z,3.44
2023-02-11T01:27:25.453Z,3.46
2023-02-11T01:28:25.519Z,3.47
2023-02-11T01:29:25.458Z,3.44
2023-02-11T01:30:25.440Z,3.46
2023-02-11T01:31:25.458Z,3.46
2023-02-11T01:32:25.397Z,3.47
2023-02-11T01:33:25.382Z,3.47
2023-02-11T01:34:25.423Z,3.46
2023-02-11T01:35:25.363Z,3.47
2023-02-11T01:36:25.356Z,3.47
2023-02-11T01:37:25.348Z,3.47
2023-02-11T01:38:25.349Z,3.46
2023-02-11T01:39:25.305Z,3.46
2023-02-11T01:40:25.302Z,3.44
2023-02-11T01:41:25.288Z,3.47
2023-02-11T01:42:25.263Z,3.46
2023-02-11T01:43:25.268Z,3.47
2023-02-11T01:44:25.264Z,3.49
2023-02-11T01:45:25.266Z,3.49
2023-02-11T01:46:25.279Z,3.49
2023-02-11T01:47:25.232Z,3.50
2023-02-11T01:48:25.193Z,3.50
2023-02-11T01:49:25.312Z,3.47
2023-02-11T01:50:25.181Z,3.49
2023-02-11T01:51:25.198Z,3.47
2023-02-11T01:52:25.161Z,3.47
2023-02-11T01:53:25.151Z,3.47
2023-02-11T01:54:25.144Z,3.47
2023-02-11T01:55:25.135Z,3.47
2023-02-11T01:56:25.133Z,3.52
2023-02-11T01:57:25.353Z,3.49
2023-02-11T01:58:25.099Z,3.49
2023-02-11T01:59:25.062Z,3.49
2023-02-11T02:00:25.057Z,3.49
2023-02-11T02:01:25.066Z,3.49
2023-02-11T02:02:25.054Z,3.49
2023-02-11T02:03:25.062Z,3.49
2023-02-11T02:04:25.006Z,3.49
2023-02-11T02:05:25.014Z,3.47
2023-02-11T02:06:24.997Z,3.49
2023-02-11T02:07:25.003Z,3.50
2023-02-11T02:08:24.968Z,3.52
2023-02-11T02:09:24.950Z,3.50
2023-02-11T02:10:24.940Z,3.53
2023-02-11T02:11:24.912Z,3.53
2023-02-11T02:12:24.901Z,3.52
2023-02-11T02:13:24.912Z,3.52
2023-02-11T02:14:24.894Z,3.53
2023-02-11T02:15:24.862Z,3.53
2023-02-11T02:16:24.858Z,3.53
2023-02-11T02:17:24.854Z,3.54
2023-02-11T02:18:24.818Z,3.57
2023-02-11T02:19:24.808Z,3.57
2023-02-11T02:20:24.788Z,3.54
2023-02-11T02:21:24.799Z,3.57
2023-02-11T02:22:24.770Z,3.58
2023-02-11T02:23:24.779Z,3.60
2023-02-11T02:24:24.763Z,3.60
2023-02-11T02:25:24.752Z,3.62
2023-02-11T02:26:24.738Z,3.62
2023-02-11T02:27:24.706Z,3.62
2023-02-11T02:28:24.774Z,3.64
2023-02-11T02:29:24.708Z,3.64
2023-02-11T02:30:24.703Z,3.64
2023-02-11T02:31:24.663Z,3.61
2023-02-11T02:32:24.646Z,3.64
2023-02-11T02:33:24.679Z,3.62
2023-02-11T02:34:24.616Z,3.61
2023-02-11T02:35:24.617Z,3.62
2023-02-11T02:36:24.592Z,3.60
2023-02-11T02:37:24.591Z,3.61
2023-02-11T02:38:24.569Z,3.61
2023-02-11T02:39:24.566Z,3.61
2023-02-11T02:40:24.547Z,3.61
2023-02-11T02:41:24.546Z,3.62
2023-02-11T02:42:24.518Z,3.65
2023-02-11T02:43:24.528Z,3.65
2023-02-11T02:44:24.498Z,3.68
2023-02-11T02:45:24.485Z,3.67
2023-02-11T02:46:24.574Z,3.68
2023-02-11T02:47:24.478Z,3.70
2023-02-11T02:48:24.445Z,3.71
2023-02-11T02:49:24.443Z,3.70
2023-02-11T02:50:24.407Z,3.70
2023-02-11T02:51:24.406Z,3.71
2023-02-11T02:52:24.412Z,3.72
2023-02-11T02:53:24.377Z,3.71
2023-02-11T02:54:24.357Z,3.71
2023-02-11T02:55:24.358Z,3.72
2023-02-11T02:56:24.374Z,3.75
2023-02-11T02:57:24.326Z,3.76
2023-02-11T02:58:24.330Z,3.78
2023-02-11T02:59:24.369Z,3.79
2023-02-11T03:00:24.324Z,3.78
2023-02-11T03:01:24.317Z,3.79
2023-02-11T03:02:24.306Z,3.80
2023-02-11T03:03:24.358Z,3.83
2023-02-11T03:04:24.296Z,3.82
2023-02-11T03:05:24.257Z,3.82
2023-02-11T03:06:24.221Z,3.83
2023-02-11T03:07:24.242Z,3.80
2023-02-11T03:08:24.206Z,3.82
2023-02-11T03:09:24.211Z,3.83
2023-02-11T03:10:24.174Z,3.85
2023-02-11T03:11:24.148Z,3.85
2023-02-11T03:12:24.142Z,3.83
2023-02-11T03:13:24.119Z,3.85
2023-02-11T03:14:24.120Z,3.85
2023-02-11T03:15:24.120Z,3.88
2023-02-11T03:16:24.136Z,3.89
2023-02-11T03:17:24.095Z,3.89
2023-02-11T03:18:24.078Z,3.89
2023-02-11T03:19:24.069Z,3.89
2023-02-11T03:20:24.035Z,3.89
2023-02-11T03:21:24.032Z,3.88
2023-02-11T03:22:24.033Z,3.88
2023-02-11T03:23:24.021Z,3.89
2023-02-11T03:24:23.978Z,3.92
2023-02-11T03:25:23.982Z,3.94
2023-02-11T03:26:23.962Z,3.94
2023-02-11T03:27:23.953Z,3.96
2023-02-11T03:28:23.977Z,3.96
2023-02-11T03:29:23.938Z,3.98
2023-02-11T03:30:23.898Z,3.97
2023-02-11T03:31:24.070Z,3.97
2023-02-11T03:32:23.894Z,3.98
2023-02-11T03:33:23.866Z,4.00
2023-02-11T03:34:23.858Z,4.01
2023-02-11T03:35:23.852Z,4.00
2023-02-11T03:36:23.818Z,4.01
2023-02-11T03:37:23.822Z,4.00
2023-02-11T03:38:23.808Z,4.01
2023-02-11T03:39:23.805Z,4.00
2023-02-11T03:40:23.769Z,4.03
2023-02-11T03:41:23.780Z,4.03
2023-02-11T03:42:23.761Z,4.04
2023-02-11T03:43:23.737Z,4.04
2023-02-11T03:44:23.731Z,4.04
2023-02-11T03:45:23.708Z,4.06
2023-02-11T03:46:23.821Z,4.04
2023-02-11T03:47:23.707Z,4.06
2023-02-11T03:48:23.678Z,4.06
2023-02-11T03:49:23.657Z,4.04
2023-02-11T03:50:23.649Z,4.06
2023-02-11T03:51:23.652Z,4.07
2023-02-11T03:52:23.631Z,4.06
2023-02-11T03:53:23.624Z,4.07
2023-02-11T03:54:23.623Z,4.07
2023-02-11T03:55:23.587Z,4.07
2023-02-11T03:56:23.586Z,4.07
2023-02-11T03:57:23.560Z,4.08
2023-02-11T03:58:23.551Z,4.08
2023-02-11T03:59:23.528Z,4.07
2023-02-11T04:00:23.528Z,4.07
2023-02-11T04:01:23.643Z,4.08
2023-02-11T04:02:23.511Z,4.10
2023-02-11T04:03:23.515Z,4.08
2023-02-11T04:04:23.468Z,4.10
2023-02-11T04:05:23.447Z,4.10
2023-02-11T04:06:23.442Z,4.12
2023-02-11T04:07:23.437Z,4.08
2023-02-11T04:08:23.430Z,4.07
2023-02-11T04:09:23.420Z,4.06
2023-02-11T04:10:23.405Z,4.07
2023-02-11T04:11:23.406Z,4.06
2023-02-11T04:12:23.365Z,4.06
2023-02-11T04:13:23.369Z,4.04
2023-02-11T04:14:23.345Z,4.06
2023-02-11T04:15:23.373Z,4.07
2023-02-11T04:16:23.440Z,4.08
2023-02-11T04:17:23.313Z,4.08
2023-02-11T04:18:23.310Z,4.10
2023-02-11T04:19:23.268Z,4.10
2023-02-11T04:20:23.266Z,4.08
2023-02-11T04:21:23.257Z,4.12
2023-02-11T04:22:23.270Z,4.12
2023-02-11T04:23:23.232Z,4.14
2023-02-11T04:24:23.207Z,4.15
2023-02-11T04:25:23.219Z,4.16
2023-02-11T04:26:23.191Z,4.18
2023-02-11T04:27:23.167Z,4.18
2023-02-11T04:28:23.208Z,4.18
2023-02-11T04:29:23.162Z,4.21
2023-02-11T04:30:23.157Z,4.21
2023-02-11T04:31:23.246Z,4.21
2023-02-11T04:32:23.124Z,4.22
2023-02-11T04:33:23.114Z,4.22
2023-02-11T04:34:23.090Z,4.25
2023-02-11T04:35:23.072Z,4.25
2023-02-11T04:36:23.066Z,4.26
2023-02-11T04:37:23.071Z,4.26
2023-02-11T04:38:23.041Z,4.26
2023-02-11T04:39:23.028Z,4.26
2023-02-11T04:40:23.001Z,4.25
2023-02-11T04:41:22.989Z,4.26
2023-02-11T04:42:22.978Z,4.26
2023-02-11T04:43:22.974Z,4.26
2023-02-11T04:44:22.962Z,4.24
2023-02-11T04:45:22.971Z,4.24
2023-02-11T04:46:23.005Z,4.25
2023-02-11T04:47:22.911Z,4.24
2023-02-11T04:48:22.918Z,4.24
2023-02-11T04:49:22.878Z,4.24
2023-02-11T04:50:22.893Z,4.25
2023-02-11T04:51:22.857Z,4.26
2023-02-11T04:52:22.871Z,4.25
2023-02-11T04:53:22.838Z,4.28
2023-02-11T04:54:22.829Z,4.29
2023-02-11T04:55:22.828Z,4.29
2023-02-11T04:56:22.815Z,4.29
2023-02-11T04:57:22.804Z,4.29
2023-02-11T04:58:22.768Z,4.29
2023-02-11T04:59:22.773Z,4.32
2023-02-11T05:00:22.769Z,4.33
2023-02-11T05:01:22.774Z,4.33
2023-02-11T05:02:22.742Z,4.33
2023-02-11T05:03:22.714Z,4.34
2023-02-11T05:04:22.812Z,4.34
2023-02-11T05:05:22.682Z,4.36
2023-02-11T05:06:22.722Z,4.37
2023-02-11T05:07:22.662Z,4.36
2023-02-11T05:08:22.644Z,4.36
2023-02-11T05:09:22.635Z,4.34
2023-02-11T05:10:22.628Z,4.36
2023-02-11T05:11:22.600Z,4.37
2023-02-11T05:12:22.594Z,4.39
2023-02-11T05:13:22.572Z,4.37
2023-02-11T05:14:22.570Z,4.37
2023-02-11T05:15:22.561Z,4.37
2023-02-11T05:16:22.581Z,4.39
2023-02-11T05:17:22.531Z,4.40
2023-02-11T05:18:22.523Z,4.40
2023-02-11T05:19:22.486Z,4.44
2023-02-11T05:20:22.510Z,4.43
2023-02-11T05:21:22.473Z,4.44
2023-02-11T05:22:22.462Z,4.46
2023-02-11T05:23:22.456Z,4.46
2023-02-11T05:24:22.448Z,4.46
2023-02-11T05:25:22.416Z,4.47
2023-02-11T05:26:22.409Z,4.50
2023-02-11T05:27:22.398Z,4.46
2023-02-11T05:28:22.445Z,4.50
2023-02-11T05:29:22.347Z,4.51
2023-02-11T05:30:22.377Z,4.51
2023-02-11T05:31:22.354Z,4.54
2023-02-11T05:32:22.334Z,4.55
2023-02-11T05:33:22.320Z,4.58
2023-02-11T05:34:22.322Z,4.61
2023-02-11T05:35:22.316Z,4.61
2023-02-11T05:36:22.273Z,4.64
2023-02-11T05:37:22.310Z,4.64
2023-02-11T05:38:22.246Z,4.65
2023-02-11T05:39:22.241Z,4.65
2023-02-11T05:40:22.227Z,4.67
2023-02-11T05:41:22.233Z,4.67
2023-02-11T05:42:22.209Z,4.69
2023-02-11T05:43:22.198Z,4.67
2023-02-11T05:44:22.166Z,4.70
2023-02-11T05:45:22.159Z,4.72
2023-02-11T05:46:22.177Z,4.72
2023-02-11T05:47:22.125Z,4.75
2023-02-11T05:48:22.144Z,4.75
2023-02-11T05:49:22.124Z,4.76
2023-02-11T05:50:22.108Z,4.76
2023-02-11T05:51:22.110Z,4.79
2023-02-11T05:52:22.084Z,4.79
2023-02-11T05:53:22.075Z,4.80
2023-02-11T05:54:22.045Z,4.80
2023-02-11T05:55:22.025Z,4.80
2023-02-11T05:56:22.028Z,4.83
2023-02-11T05:57:22.015Z,4.83
2023-02-11T05:58:21.995Z,4.84
2023-02-11T05:59:21.989Z,4.84
2023-02-11T06:00:21.972Z,4.88
2023-02-11T06:01:21.969Z,4.89
2023-02-11T06:02:21.957Z,4.88
2023-02-11T06:03:21.965Z,4.88
2023-02-11T06:04:21.935Z,4.89
2023-02-11T06:05:21.909Z,4.92
2023-02-11T06:06:21.888Z,4.92
2023-02-11T06:07:21.894Z,4.95
2023-02-11T06:08:21.863Z,4.95
2023-02-11T06:09:21.872Z,4.94
2023-02-11T06:10:21.849Z,4.96
2023-02-11T06:11:21.814Z,4.96
2023-02-11T06:12:21.806Z,4.98
2023-02-11T06:13:21.800Z,4.99
2023-02-11T06:14:21.811Z,5.01
2023-02-11T06:15:21.765Z,5.01
2023-02-11T06:16:21.808Z,5.01
2023-02-11T06:17:21.751Z,5.01
2023-02-11T06:18:21.736Z,5.01
2023-02-11T06:19:21.754Z,5.01
2023-02-11T06:20:21.706Z,5.04
2023-02-11T06:21:21.694Z,5.02
2023-02-11T06:22:21.701Z,5.02
2023-02-11T06:23:21.678Z,5.02
2023-02-11T06:24:44.371Z,5.04
2023-02-11T06:25:22.693Z,5.04
2023-02-11T06:26:21.656Z,5.05
2023-02-11T06:27:21.615Z,5.04
2023-02-11T06:28:21.649Z,5.04
2023-02-11T06:29:21.599Z,5.05
2023-02-11T06:30:21.626Z,5.07
2023-02-11T06:31:21.650Z,5.05
2023-02-11T06:32:42.231Z,5.05
2023-02-11T06:33:22.549Z,5.05
2023-02-11T06:34:21.540Z,5.05
2023-02-11T06:35:21.514Z,5.05
2023-02-11T06:36:21.517Z,5.04
2023-02-11T06:37:21.524Z,5.05
2023-02-11T06:38:21.486Z,5.07
2023-02-11T06:39:21.463Z,5.05
2023-02-11T06:40:21.456Z,5.05
2023-02-11T06:41:21.457Z,5.05
2023-02-11T06:42:21.497Z,5.07
2023-02-11T06:43:21.437Z,5.05
2023-02-11T06:44:21.420Z,5.04
2023-02-11T06:45:21.384Z,5.05
2023-02-11T06:46:21.480Z,5.07
2023-02-11T06:47:21.406Z,5.07
2023-02-11T06:48:21.433Z,5.10
2023-02-11T06:49:21.335Z,5.10
2023-02-11T06:50:21.338Z,5.07
2023-02-11T06:51:21.357Z,5.09
2023-02-11T06:52:21.365Z,5.07
2023-02-11T06:53:21.306Z,5.05
2023-02-11T06:54:21.282Z,5.05
2023-02-11T06:55:21.257Z,5.07
2023-02-11T06:56:21.283Z,5.07
2023-02-11T06:57:21.264Z,5.07
2023-02-11T06:58:21.244Z,5.09
2023-02-11T06:59:21.208Z,5.10
2023-02-11T07:00:21.222Z,5.10
2023-02-11T07:01:21.338Z,5.12
2023-02-11T07:02:21.433Z,5.13
2023-02-11T07:03:21.287Z,5.13
2023-02-11T07:04:21.176Z,5.14
2023-02-11T07:05:21.170Z,5.13
2023-02-11T07:06:21.137Z,5.13
2023-02-11T07:07:21.130Z,5.13
2023-02-11T07:08:21.148Z,5.14
2023-02-11T07:09:21.101Z,5.14
2023-02-11T07:10:21.120Z,5.16
2023-02-11T07:11:21.090Z,5.16
2023-02-11T07:12:21.076Z,5.17
2023-02-11T07:13:21.090Z,5.19
2023-02-11T07:14:21.047Z,5.22
2023-02-11T07:15:21.016Z,5.23
2023-02-11T07:16:21.170Z,5.22
2023-02-11T07:17:20.985Z,5.22
2023-02-11T07:18:20.975Z,5.25
2023-02-11T07:19:20.977Z,5.25
2023-02-11T07:20:20.959Z,5.25
2023-02-11T07:21:20.935Z,5.27
2023-02-11T07:22:20.967Z,5.27
2023-02-11T07:23:20.919Z,5.27
2023-02-11T07:24:20.910Z,5.28
2023-02-11T07:25:20.880Z,5.30
2023-02-11T07:26:20.876Z,5.30
2023-02-11T07:27:20.879Z,5.30
2023-02-11T07:28:20.890Z,5.30
2023-02-11T07:29:20.842Z,5.31
2023-02-11T07:30:20.840Z,5.31
2023-02-11T07:31:20.930Z,5.31
2023-02-11T07:32:20.880Z,5.32
2023-02-11T07:33:20.807Z,5.34
2023-02-11T07:34:20.783Z,5.35
2023-02-11T07:35:20.770Z,5.37
2023-02-11T07:36:20.752Z,5.38
2023-02-11T07:37:20.774Z,5.41
2023-02-11T07:38:20.736Z,5.43
2023-02-11T07:39:20.777Z,5.43
2023-02-11T07:40:20.708Z,5.43
2023-02-11T07:41:20.680Z,5.45
2023-02-11T07:42:20.693Z,5.46
2023-02-11T07:43:20.698Z,5.45
2023-02-11T07:44:20.694Z,5.46
2023-02-11T07:45:20.647Z,5.49
2023-02-11T07:46:20.658Z,5.49
2023-02-11T07:47:20.634Z,5.52
2023-02-11T07:48:20.592Z,5.55
2023-02-11T07:49:20.588Z,5.55
2023-02-11T07:50:20.574Z,5.53
2023-02-11T07:51:20.556Z,5.56
2023-02-11T07:52:20.562Z,5.56
2023-02-11T07:53:20.595Z,5.55
2023-02-11T07:54:20.549Z,5.56
2023-02-11T07:55:20.503Z,5.56
2023-02-11T07:56:20.515Z,5.59
2023-02-11T07:57:20.488Z,5.60
2023-02-11T07:58:20.479Z,5.63
2023-02-11T07:59:20.470Z,5.63
2023-02-11T08:00:21.283Z,5.63
2023-02-11T08:01:20.497Z,5.64
2023-02-11T08:02:20.485Z,5.64
2023-02-11T08:03:20.427Z,5.66
2023-02-11T08:04:27.447Z,5.67
2023-02-11T08:05:20.400Z,5.68
2023-02-11T08:06:20.411Z,5.68
2023-02-11T08:07:20.362Z,5.70
2023-02-11T08:08:21.101Z,5.73
2023-02-11T08:09:21.118Z,5.73
2023-02-11T08:10:20.334Z,5.75
2023-02-11T08:11:20.324Z,5.77
2023-02-11T08:12:20.276Z,5.77
2023-02-11T08:13:20.280Z,5.78
2023-02-11T08:14:20.256Z,5.82
2023-02-11T08:15:20.269Z,5.83
2023-02-11T08:16:20.323Z,5.85
2023-02-11T08:17:20.232Z,5.86
2023-02-11T08:18:20.234Z,5.88
2023-02-11T08:19:20.203Z,5.91
2023-02-11T08:20:20.288Z,5.92
2023-02-11T08:21:20.184Z,5.92
2023-02-11T08:22:20.166Z,5.93
2023-02-11T08:23:20.143Z,5.95
2023-02-11T08:24:20.122Z,5.98
2023-02-11T08:25:20.124Z,5.98
2023-02-11T08:26:20.117Z,6.01
2023-02-11T08:27:20.106Z,6.03
2023-02-11T08:28:20.157Z,6.03
2023-02-11T08:29:20.107Z,6.01
2023-02-11T08:30:20.065Z,6.03
2023-02-11T08:31:20.154Z,6.03
2023-02-11T08:32:20.106Z,6.03
2023-02-11T08:33:20.034Z,6.01
2023-02-11T08:34:20.011Z,6.03
2023-02-11T08:35:20.028Z,6.03
2023-02-11T08:36:19.970Z,6.03
2023-02-11T08:37:19.993Z,6.06
2023-02-11T08:38:19.942Z,6.06
2023-02-11T08:39:20.766Z,6.04
2023-02-11T08:40:19.937Z,6.06
2023-02-11T08:41:19.965Z,6.06
2023-02-11T08:42:19.898Z,6.06
2023-02-11T08:43:19.902Z,6.07
2023-02-11T08:44:19.883Z,6.09
2023-02-11T08:45:19.886Z,6.09
2023-02-11T08:46:19.917Z,6.07
2023-02-11T08:47:19.857Z,6.09
2023-02-11T08:48:19.822Z,6.07
2023-02-11T08:49:19.824Z,6.09
2023-02-11T08:50:19.825Z,6.09
2023-02-11T08:51:19.806Z,6.09
2023-02-11T08:52:19.945Z,6.10
2023-02-11T08:53:19.772Z,6.07
2023-02-11T08:54:19.785Z,6.07
2023-02-11T08:55:19.752Z,6.09
2023-02-11T08:56:19.727Z,6.07
2023-02-11T08:57:19.726Z,6.10
2023-02-11T08:58:19.698Z,6.10
2023-02-11T08:59:19.701Z,6.11
2023-02-11T09:00:19.676Z,6.14
2023-02-11T09:01:22.303Z,6.14
2023-02-11T09:02:19.719Z,6.16
2023-02-11T09:03:19.654Z,6.19
2023-02-11T09:04:19.628Z,6.19
2023-02-11T09:05:19.631Z,6.19
2023-02-11T09:06:19.683Z,6.21
2023-02-11T09:07:19.599Z,6.21
2023-02-11T09:08:19.580Z,6.25
2023-02-11T09:09:19.566Z,6.26
2023-02-11T09:10:19.542Z,6.28
2023-02-11T09:11:19.542Z,6.28
2023-02-11T09:12:19.510Z,6.29
2023-02-11T09:13:19.516Z,6.30
2023-02-11T09:14:19.515Z,6.32
2023-02-11T09:15:19.495Z,6.33
2023-02-11T09:16:19.531Z,6.36
2023-02-11T09:17:19.468Z,6.40
2023-02-11T09:18:19.452Z,6.38
2023-02-11T09:19:19.438Z,6.43
2023-02-11T09:20:19.411Z,6.41
2023-02-11T09:21:19.416Z,6.43
2023-02-11T09:22:19.406Z,6.43
2023-02-11T09:23:19.378Z,6.44
2023-02-11T09:24:19.364Z,6.47
2023-02-11T09:25:19.343Z,6.48
2023-02-11T09:26:19.350Z,6.50
2023-02-11T09:27:19.323Z,6.50
2023-02-11T09:28:19.335Z,6.53
2023-02-11T09:29:19.297Z,6.53
2023-02-11T09:30:19.297Z,6.53
2023-02-11T09:31:19.477Z,6.53
2023-02-11T09:32:19.292Z,6.53
2023-02-11T09:33:19.269Z,6.53
2023-02-11T09:34:19.262Z,6.53
2023-02-11T09:35:19.247Z,6.53
2023-02-11T09:36:19.242Z,6.53
2023-02-11T09:37:19.216Z,6.51
2023-02-11T09:38:19.209Z,6.53
2023-02-11T09:39:19.190Z,6.53
2023-02-11T09:40:19.177Z,6.58
2023-02-11T09:41:19.176Z,6.56
2023-02-11T09:42:19.176Z,6.58
2023-02-11T09:43:19.139Z,6.59
2023-02-11T09:44:19.138Z,6.59
2023-02-11T09:45:19.117Z,6.59
2023-02-11T09:46:19.141Z,6.59
2023-02-11T09:47:19.078Z,6.59
2023-02-11T09:48:19.079Z,6.61
2023-02-11T09:49:19.058Z,6.62
2023-02-11T09:50:19.024Z,6.62
2023-02-11T09:51:19.035Z,6.61
2023-02-11T09:52:19.035Z,6.61
2023-02-11T09:53:19.018Z,6.61
2023-02-11T09:54:19.006Z,6.63
2023-02-11T09:55:18.998Z,6.61
2023-02-11T09:56:18.956Z,6.61
2023-02-11T09:57:28.248Z,6.59
2023-02-11T09:58:20.034Z,6.59
2023-02-11T09:59:18.955Z,6.58
2023-02-11T10:00:18.911Z,6.56
2023-02-11T10:01:21.011Z,6.56
2023-02-11T10:02:18.903Z,6.54
2023-02-11T10:03:18.923Z,6.53
2023-02-11T10:04:18.977Z,6.54
2023-02-11T10:05:18.893Z,6.53
2023-02-11T10:06:18.873Z,6.53
2023-02-11T10:07:18.820Z,6.54
2023-02-11T10:08:18.803Z,6.54
2023-02-11T10:09:18.800Z,6.53
2023-02-11T10:10:18.791Z,6.56
2023-02-11T10:11:30.986Z,6.58
2023-02-11T10:12:19.770Z,6.59
2023-02-11T10:13:18.744Z,6.61
2023-02-11T10:14:18.742Z,6.61
2023-02-11T10:15:18.759Z,6.61
2023-02-11T10:16:18.699Z,6.61
2023-02-11T10:17:18.728Z,6.61
2023-02-11T10:18:18.680Z,6.62
2023-02-11T10:19:18.811Z,6.63
2023-02-11T10:20:18.682Z,6.65
2023-02-11T10:21:18.680Z,6.65
2023-02-11T10:22:18.702Z,6.66
2023-02-11T10:23:18.643Z,6.66
2023-02-11T10:24:18.621Z,6.68
2023-02-11T10:25:18.589Z,6.71
2023-02-11T10:26:18.646Z,6.72
2023-02-11T10:27:18.597Z,6.72
2023-02-11T10:28:18.640Z,6.76
2023-02-11T10:29:18.552Z,6.73
2023-02-11T10:30:18.539Z,6.76
2023-02-11T10:31:18.649Z,6.76
2023-02-11T10:32:18.499Z,6.76
2023-02-11T10:33:18.502Z,6.77
2023-02-11T10:34:18.486Z,6.76
2023-02-11T10:35:18.470Z,6.77
2023-02-11T10:36:18.440Z,6.76
2023-02-11T10:37:18.457Z,6.77
2023-02-11T10:38:18.421Z,6.77
2023-02-11T10:39:18.431Z,6.76
2023-02-11T10:40:18.519Z,6.77
2023-02-11T10:41:18.424Z,6.76
2023-02-11T10:42:18.367Z,6.77
2023-02-11T10:43:18.400Z,6.77
2023-02-11T10:44:18.348Z,6.79
2023-02-11T10:45:18.381Z,6.77
2023-02-11T10:46:18.338Z,6.80
2023-02-11T10:47:18.343Z,6.79
2023-02-11T10:48:18.372Z,6.77
2023-02-11T10:49:18.306Z,6.77
2023-02-11T10:50:18.319Z,6.77
2023-02-11T10:51:18.267Z,6.76
2023-02-11T10:52:18.261Z,6.79
2023-02-11T10:53:18.254Z,6.77
2023-02-11T10:54:18.219Z,6.73
2023-02-11T10:55:18.212Z,6.73
2023-02-11T10:56:18.191Z,6.76
2023-02-11T10:57:18.184Z,6.76
2023-02-11T10:58:18.160Z,6.76
2023-02-11T10:59:21.046Z,6.76
2023-02-11T11:00:18.209Z,6.77
2023-02-11T11:01:24.297Z,6.76
2023-02-11T11:02:19.109Z,6.76
2023-02-11T11:03:18.111Z,6.77
2023-02-11T11:04:18.156Z,6.77
2023-02-11T11:05:18.094Z,6.77
2023-02-11T11:06:18.101Z,6.76
2023-02-11T11:07:18.101Z,6.76
2023-02-11T11:08:18.030Z,6.76
2023-02-11T11:09:18.030Z,6.76
2023-02-11T11:10:18.023Z,6.77
2023-02-11T11:11:18.027Z,6.77
2023-02-11T11:12:18.024Z,6.77
2023-02-11T11:13:17.970Z,6.79
2023-02-11T11:14:17.974Z,6.80
2023-02-11T11:15:18.014Z,6.79
2023-02-11T11:16:18.030Z,6.80
2023-02-11T11:17:17.924Z,6.81
2023-02-11T11:18:23.052Z,6.81
2023-02-11T11:19:18.933Z,6.81
2023-02-11T11:20:17.880Z,6.83
2023-02-11T11:21:17.943Z,6.81
2023-02-11T11:22:17.852Z,6.81
2023-02-11T11:23:17.861Z,6.80
2023-02-11T11:24:17.831Z,6.80
2023-02-11T11:25:17.849Z,6.81
2023-02-11T11:26:17.823Z,6.81
2023-02-11T11:27:17.813Z,6.80
2023-02-11T11:28:17.809Z,6.81
2023-02-11T11:29:17.797Z,6.83
2023-02-11T11:30:17.783Z,6.83
2023-02-11T11:31:17.879Z,6.81
2023-02-11T11:32:19.575Z,6.81
2023-02-11T11:33:17.810Z,6.81
2023-02-11T11:34:17.714Z,6.83
2023-02-11T11:35:17.689Z,6.86
2023-02-11T11:36:17.834Z,6.87
2023-02-11T11:37:17.691Z,6.89
2023-02-11T11:38:17.667Z,6.89
2023-02-11T11:39:17.637Z,6.90
2023-02-11T11:40:17.640Z,6.90
2023-02-11T11:41:17.645Z,6.90
2023-02-11T11:42:17.609Z,6.91
2023-02-11T11:43:17.610Z,6.94
2023-02-11T11:44:17.585Z,6.95
2023-02-11T11:45:17.564Z,6.95
2023-02-11T11:46:17.652Z,6.97
2023-02-11T11:47:17.577Z,6.97
2023-02-11T11:48:17.539Z,6.98
2023-02-11T11:49:17.558Z,6.98
2023-02-11T11:50:20.137Z,6.99
2023-02-11T11:51:17.488Z,6.99
2023-02-11T11:52:17.472Z,6.99
2023-02-11T11:53:17.474Z,7.02
2023-02-11T11:54:17.456Z,7.04
2023-02-11T11:55:17.465Z,7.02
2023-02-11T11:56:17.431Z,7.04
2023-02-11T11:57:17.431Z,7.05
2023-02-11T11:58:17.401Z,7.08
2023-02-11T11:59:17.398Z,7.08
2023-02-11T12:00:17.376Z,7.09
2023-02-11T12:01:17.353Z,7.09
2023-02-11T12:02:17.414Z,7.15
2023-02-11T12:03:17.366Z,7.13
2023-02-11T12:04:17.328Z,7.15
2023-02-11T12:05:17.316Z,7.15
2023-02-11T12:06:17.319Z,7.15
2023-02-11T12:07:17.283Z,7.17
2023-02-11T12:08:17.265Z,7.17
2023-02-11T12:09:17.282Z,7.19
2023-02-11T12:10:17.287Z,7.23
2023-02-11T12:11:17.227Z,7.24
2023-02-11T12:12:17.212Z,7.23
2023-02-11T12:13:17.204Z,7.26
2023-02-11T12:14:17.195Z,7.27
2023-02-11T12:15:17.209Z,7.26
2023-02-11T12:16:17.209Z,7.27
2023-02-11T12:17:17.152Z,7.29
2023-02-11T12:18:17.157Z,7.34
2023-02-11T12:19:17.146Z,7.31
2023-02-11T12:20:17.111Z,7.34
2023-02-11T12:21:17.106Z,7.35
2023-02-11T12:22:17.125Z,7.35
2023-02-11T12:23:17.072Z,7.35
2023-02-11T12:24:17.530Z,7.34
2023-02-11T12:25:17.065Z,7.34
2023-02-11T12:26:17.056Z,7.32
2023-02-11T12:27:17.032Z,7.32
2023-02-11T12:28:17.071Z,7.34
2023-02-11T12:29:17.006Z,7.34
2023-02-11T12:30:16.995Z,7.34
2023-02-11T12:31:17.149Z,7.35
2023-02-11T12:32:17.001Z,7.35
2023-02-11T12:33:16.966Z,7.37
2023-02-11T12:34:16.976Z,7.37
2023-02-11T12:35:16.951Z,7.38
2023-02-11T12:36:16.928Z,7.38
2023-02-11T12:37:16.909Z,7.40
2023-02-11T12:38:16.915Z,7.40
2023-02-11T12:39:16.886Z,7.40
2023-02-11T12:40:16.892Z,7.40
2023-02-11T12:41:16.844Z,7.42
2023-02-11T12:42:16.889Z,7.41
2023-02-11T12:43:16.829Z,7.41
2023-02-11T12:44:16.846Z,7.40
2023-02-11T12:45:16.798Z,7.41
2023-02-11T12:46:16.855Z,7.42
2023-02-11T12:47:16.795Z,7.44
2023-02-11T12:48:16.808Z,7.45
2023-02-11T12:49:16.743Z,7.44
2023-02-11T12:50:16.747Z,7.44
2023-02-11T12:51:16.718Z,7.45
2023-02-11T12:52:16.722Z,7.45
2023-02-11T12:53:16.754Z,7.44
2023-02-11T12:54:16.751Z,7.49
2023-02-11T12:55:16.667Z,7.45
2023-02-11T12:56:16.662Z,7.44
2023-02-11T12:57:16.636Z,7.44
2023-02-11T12:58:16.646Z,7.44
2023-02-11T12:59:16.641Z,7.42
2023-02-11T13:00:16.620Z,7.44
2023-02-11T13:01:16.680Z,7.40
2023-02-11T13:02:16.636Z,7.41
2023-02-11T13:03:16.564Z,7.42
2023-02-11T13:04:16.569Z,7.41
2023-02-11T13:05:16.562Z,7.42
2023-02-11T13:06:16.582Z,7.41
2023-02-11T13:07:16.541Z,7.41
2023-02-11T13:08:16.508Z,7.44
2023-02-11T13:09:16.520Z,7.44
2023-02-11T13:10:16.492Z,7.41
2023-02-11T13:11:16.483Z,7.42
2023-02-11T13:12:16.449Z,7.41
2023-02-11T13:13:16.458Z,7.42
2023-02-11T13:14:16.439Z,7.45
2023-02-11T13:15:16.445Z,7.45
2023-02-11T13:16:16.428Z,7.47
2023-02-11T13:17:16.429Z,7.45
2023-02-11T13:18:19.021Z,7.49